KSVC/SVC METAR and TAF weather

Enter ICAO airport designator
Station Type Date Time Source
KSVC METAR 2019/06/19 02:55 UTC NOAA

KSVC 190255Z AUTO 29006KT 10SM CLR 23/M08 A3008 RMK AO2 T02331076


Station Type Date Time Source
KSVC Decoded METAR 2019/06/19 02:55 UTC NOAA

Silver City / Grant, NM, United States (KSVC) 32-38N 108-09W
Jun 18, 2019 - 10:55 PM EDT / 2019.06.19 0255 UTC
Wind: from the WNW (290 degrees) at 7 MPH (6 KT):0
Visibility: 10 mile(s):0
Sky conditions: clear
Temperature: 73.9 F (23.3 C)
Dew Point: 18.3 F (-7.6 C)
Relative Humidity: 12%
Pressure (altimeter): 30.08 in. Hg (1018 hPa)
ob: KSVC 190255Z AUTO 29006KT 10SM CLR 23/M08 A3008 RMK AO2 T02331076
cycle: 3

Station Type Date Time Source
KSVC TAF UTC NOAA

Error!

Example: see airport list